Aérodrome :
LOGIN :

S'inscrire | Disclaimer

   EN    FR    IT 

 










Légende :    VFR   VFR Marginal   IFR   IFR Intensif   IFR Très Intensif
Visi : 
Plafond : 
>= 8 km
>= 3000ft
5 à 8 km
1000 à 3000 ft
1500m à 5 km
500 à 1000 ft
800 à 1500m
200 à 500 ft
< 800m
< 200 ft
Symboles :   Orages  Brouillard  Fortes neiges  Fortes précipitations  Vent > 20 kt
SIGMETs :   Divers  Orages  Givrage  Turbulence  Onde Orograph.  Cendres Volcan.







- Altitude de l'aérodrome : 1060 ft
- Code IATA : GAF


DTTF - Gafsa

DERNIER METAR :
  • 142000Z 27009KT 9999 SCT033 09/05 Q1011 NOSIG

METARs EXPIRÉS :
  • 141900Z 28009KT 9999 SCT033 10/05 Q1010 NOSIG
  • 141800Z 24006KT 9999 FEW033 08/06 Q1010 NOSIG

TAF TAF DTTF
Valide du 14 à 19h jusqu'au 15 à 04h UTC


141800Z 1419/1504 26012KT 9999 FEW026
PROB30
TEMPO 1420/1422 23017G27KT 4000 SA
Pas de NOTAMs connus pour ce terrain.
1 SIGMET publié pour la FIR Tunis (DTTC) :
 
Turbulence forte
DTTC SIGMET 02 VALID 141800/142200 DTTA
DTTC TUNIS FIR LOC SEV TURB FCST NORTH OF N3600 BTN FL030/100 MOV EAST NC.=



MET'MAP, la Météo Aéronautique d'un coup d'oeil ! - Copyright ORBIFLY Décembre 2007 - Disclaimer

ORBIFLY MET'MAP TEAM :

Programmation & Développement : Alexandra Zaïnal
Conception & Développement : Baudouin d'Aumeries
Co-Programmation & Développement : Marc-Olivier Méhu
Soutien technique & logistique : Manuel Goepfert

Contact : metmap@orbifly.com




SOURCES & CREDITS :

   NOAA